createdAt,value
2022-11-02T00:00:15.287Z,21.63
2022-11-02T00:02:42.502Z,21.62
2022-11-02T00:05:11.887Z,21.62
2022-11-02T00:07:38.926Z,21.61
2022-11-02T00:10:06.271Z,21.59
2022-11-02T00:12:33.336Z,21.57
2022-11-02T00:15:00.251Z,21.56
2022-11-02T00:17:27.347Z,21.54
2022-11-02T00:19:54.410Z,21.52
2022-11-02T00:22:21.386Z,21.50
2022-11-02T00:24:48.331Z,21.49
2022-11-02T00:27:15.390Z,21.48
2022-11-02T00:29:42.450Z,21.46
2022-11-02T00:32:09.309Z,21.46
2022-11-02T00:34:36.171Z,21.42
2022-11-02T00:37:03.489Z,21.42
2022-11-02T00:39:30.588Z,21.37
2022-11-02T00:41:57.470Z,21.40
2022-11-02T00:44:24.327Z,21.37
2022-11-02T00:46:51.266Z,21.38
2022-11-02T00:49:18.255Z,21.35
2022-11-02T00:51:45.318Z,21.35
2022-11-02T00:54:12.758Z,21.36
2022-11-02T00:56:39.709Z,21.35
2022-11-02T00:59:06.648Z,21.35
2022-11-02T01:01:33.722Z,21.33
2022-11-02T01:04:00.699Z,21.29
2022-11-02T01:06:27.478Z,21.28
2022-11-02T01:08:54.697Z,21.27
2022-11-02T01:11:22.977Z,21.26
2022-11-02T01:13:52.565Z,21.23
2022-11-02T01:16:19.556Z,21.23
2022-11-02T01:18:46.770Z,21.21
2022-11-02T01:21:13.651Z,21.19
2022-11-02T01:23:40.488Z,21.17
2022-11-02T01:26:08.308Z,21.16
2022-11-02T01:28:35.547Z,21.13
2022-11-02T01:31:02.650Z,21.13
2022-11-02T01:33:29.829Z,21.09
2022-11-02T01:35:56.720Z,21.07
2022-11-02T01:38:23.946Z,21.06
2022-11-02T01:40:50.888Z,21.05
2022-11-02T01:43:21.138Z,21.04
2022-11-02T01:45:49.026Z,21.01
2022-11-02T01:48:16.191Z,21.00
2022-11-02T01:50:43.688Z,20.99
2022-11-02T01:53:10.898Z,20.98
2022-11-02T01:55:40.451Z,20.95
2022-11-02T01:58:10.598Z,20.94
2022-11-02T02:00:38.955Z,20.91
2022-11-02T02:03:10.360Z,20.91
2022-11-02T02:05:42.278Z,20.89
2022-11-02T02:08:10.408Z,20.89
2022-11-02T02:10:37.296Z,20.87
2022-11-02T02:13:05.614Z,20.86
2022-11-02T02:15:40.559Z,20.84
2022-11-02T02:18:11.409Z,20.82
2022-11-02T02:20:45.697Z,20.81
2022-11-02T02:23:21.809Z,20.81
2022-11-02T02:25:49.001Z,20.79
2022-11-02T02:28:19.896Z,20.78
2022-11-02T02:30:55.686Z,20.76
2022-11-02T02:33:31.645Z,20.74
2022-11-02T02:36:02.529Z,20.75
2022-11-02T02:38:29.846Z,20.73
2022-11-02T02:41:06.340Z,20.74
2022-11-02T02:43:37.297Z,20.72
2022-11-02T02:46:10.586Z,20.68
2022-11-02T02:48:40.498Z,20.66
2022-11-02T02:51:11.500Z,20.66
2022-11-02T02:53:42.290Z,20.64
2022-11-02T02:56:10.735Z,20.64
2022-11-02T02:58:40.555Z,20.61
2022-11-02T03:01:11.496Z,20.62
2022-11-02T03:03:40.039Z,20.60
2022-11-02T03:06:15.631Z,20.60
2022-11-02T03:08:44.526Z,20.58
2022-11-02T03:11:16.350Z,20.57
2022-11-02T03:13:55.733Z,20.56
2022-11-02T03:16:23.248Z,20.57
2022-11-02T03:18:59.741Z,20.54
2022-11-02T03:21:30.719Z,20.54
2022-11-02T03:24:02.957Z,20.52
2022-11-02T03:26:39.692Z,20.51
2022-11-02T03:29:10.435Z,20.50
2022-11-02T03:31:46.753Z,20.48
2022-11-02T03:34:17.789Z,20.48
2022-11-02T03:36:50.117Z,20.46
2022-11-02T03:39:19.897Z,20.45
2022-11-02T03:41:47.718Z,20.44
2022-11-02T03:44:17.533Z,20.41
2022-11-02T03:46:44.737Z,20.40
2022-11-02T03:49:14.558Z,20.39
2022-11-02T03:51:43.026Z,20.36
2022-11-02T03:54:17.739Z,20.36
2022-11-02T03:56:46.949Z,20.34
2022-11-02T03:59:13.958Z,20.32
2022-11-02T04:01:42.812Z,20.32
2022-11-02T04:04:09.957Z,20.30
2022-11-02T04:06:37.354Z,20.30
2022-11-02T04:09:05.028Z,20.29
2022-11-02T04:11:41.549Z,20.26
2022-11-02T04:14:18.429Z,20.25
2022-11-02T04:16:45.209Z,20.23
2022-11-02T04:19:21.375Z,20.24
2022-11-02T04:21:57.419Z,20.22
2022-11-02T04:24:33.381Z,20.19
2022-11-02T04:27:00.437Z,20.18
2022-11-02T04:29:27.289Z,20.18
2022-11-02T04:31:54.019Z,20.17
2022-11-02T04:34:20.746Z,20.16
2022-11-02T04:36:48.059Z,20.12
2022-11-02T04:39:14.824Z,20.11
2022-11-02T04:41:42.641Z,20.10
2022-11-02T04:44:11.399Z,20.10
2022-11-02T04:46:39.049Z,20.09
2022-11-02T04:49:05.802Z,20.08
2022-11-02T04:51:32.584Z,20.07
2022-11-02T04:53:59.619Z,20.07
2022-11-02T04:56:27.249Z,20.05
2022-11-02T04:58:56.184Z,20.04
2022-11-02T05:01:24.801Z,20.02
2022-11-02T05:03:52.761Z,20.03
2022-11-02T05:06:20.329Z,20.02
2022-11-02T05:08:47.369Z,20.01
2022-11-02T05:11:14.640Z,20.01
2022-11-02T05:13:41.614Z,20.01
2022-11-02T05:16:10.719Z,19.99
2022-11-02T05:18:37.464Z,19.97
2022-11-02T05:21:04.259Z,19.95
2022-11-02T05:23:31.008Z,19.95
2022-11-02T05:25:59.059Z,19.94
2022-11-02T05:28:26.766Z,19.94
2022-11-02T05:30:53.864Z,19.91
2022-11-02T05:33:21.304Z,19.90
2022-11-02T05:35:48.261Z,19.89
2022-11-02T05:38:15.155Z,19.89
2022-11-02T05:40:42.713Z,19.88
2022-11-02T05:43:10.021Z,19.89
2022-11-02T05:45:37.242Z,19.88
2022-11-02T05:48:06.990Z,19.89
2022-11-02T05:50:34.219Z,19.92
2022-11-02T05:53:01.239Z,19.96
2022-11-02T05:55:28.284Z,19.99
2022-11-02T05:57:56.113Z,20.02
2022-11-02T06:00:24.435Z,20.05
2022-11-02T06:02:55.808Z,20.08
2022-11-02T06:05:22.828Z,20.13
2022-11-02T06:07:49.629Z,20.16
2022-11-02T06:10:16.419Z,20.21
2022-11-02T06:12:43.380Z,20.25
2022-11-02T06:15:10.365Z,20.29
2022-11-02T06:17:38.060Z,20.34
2022-11-02T06:20:05.060Z,20.39
2022-11-02T06:22:31.869Z,20.44
2022-11-02T06:24:58.604Z,20.49
2022-11-02T06:27:25.284Z,20.53
2022-11-02T06:29:52.098Z,20.58
2022-11-02T06:32:18.898Z,20.63
2022-11-02T06:34:45.603Z,20.68
2022-11-02T06:37:12.335Z,20.72
2022-11-02T06:39:39.060Z,20.77
2022-11-02T06:42:05.900Z,20.84
2022-11-02T06:44:32.739Z,20.88
2022-11-02T06:46:59.544Z,20.94
2022-11-02T06:49:26.338Z,20.99
2022-11-02T06:51:53.229Z,21.03
2022-11-02T06:54:20.009Z,21.08
2022-11-02T06:56:46.765Z,21.13
2022-11-02T06:59:13.642Z,21.16
2022-11-02T07:01:40.589Z,21.20
2022-11-02T07:04:08.054Z,21.25
2022-11-02T07:06:35.009Z,21.27
2022-11-02T07:09:01.822Z,21.31
2022-11-02T07:11:28.565Z,21.34
2022-11-02T07:13:55.729Z,21.37
2022-11-02T07:16:22.839Z,21.40
2022-11-02T07:18:49.718Z,21.43
2022-11-02T07:21:16.661Z,21.46
2022-11-02T07:23:43.514Z,21.48
2022-11-02T07:26:10.353Z,21.35
2022-11-02T07:28:38.630Z,21.33
2022-11-02T07:31:05.834Z,21.34
2022-11-02T07:33:32.942Z,21.34
2022-11-02T07:35:59.899Z,21.36
2022-11-02T07:38:26.692Z,21.36
2022-11-02T07:40:53.504Z,21.38
2022-11-02T07:43:20.378Z,21.39
2022-11-02T07:45:47.329Z,21.39
2022-11-02T07:48:14.379Z,21.36
2022-11-02T07:50:41.465Z,21.35
2022-11-02T07:53:08.759Z,21.35
2022-11-02T07:55:35.906Z,21.33
2022-11-02T07:58:04.675Z,21.33
2022-11-02T08:00:33.212Z,21.30
2022-11-02T08:03:01.387Z,21.30
2022-11-02T08:05:29.639Z,21.28
2022-11-02T08:07:59.024Z,21.28
2022-11-02T08:10:26.142Z,21.27
2022-11-02T08:12:53.264Z,21.26
2022-11-02T08:15:20.775Z,21.27
2022-11-02T08:17:48.057Z,21.33
2022-11-02T08:20:15.414Z,21.33
2022-11-02T08:22:42.528Z,21.33
2022-11-02T08:25:10.070Z,21.34
2022-11-02T08:27:37.270Z,21.35
2022-11-02T08:30:04.857Z,21.35
2022-11-02T08:32:32.059Z,21.36
2022-11-02T08:34:59.195Z,21.37
2022-11-02T08:37:26.453Z,21.38
2022-11-02T08:39:53.756Z,21.39
2022-11-02T08:42:20.990Z,21.40
2022-11-02T08:44:48.303Z,21.41
2022-11-02T08:47:16.610Z,21.43
2022-11-02T08:49:43.740Z,21.43
2022-11-02T08:52:11.146Z,21.44
2022-11-02T08:54:38.464Z,21.46
2022-11-02T08:57:05.655Z,21.45
2022-11-02T08:59:32.921Z,21.45
2022-11-02T09:02:00.111Z,21.45
2022-11-02T09:04:27.435Z,21.45
2022-11-02T09:06:54.940Z,21.45
2022-11-02T09:09:22.055Z,21.44
2022-11-02T09:11:50.570Z,21.45
2022-11-02T09:14:17.819Z,21.44
2022-11-02T09:16:45.180Z,21.43
2022-11-02T09:19:12.377Z,21.45
2022-11-02T09:21:39.487Z,21.42
2022-11-02T09:24:06.970Z,21.42
2022-11-02T09:26:34.132Z,21.41
2022-11-02T09:29:01.515Z,21.41
2022-11-02T09:31:30.657Z,21.40
2022-11-02T09:33:57.851Z,21.41
2022-11-02T09:36:25.134Z,21.40
2022-11-02T09:38:52.372Z,21.40
2022-11-02T09:41:20.621Z,21.40
2022-11-02T09:43:53.773Z,21.40
2022-11-02T09:46:26.588Z,21.40
2022-11-02T09:48:57.576Z,21.37
2022-11-02T09:51:27.821Z,21.36
2022-11-02T09:54:03.183Z,21.35
2022-11-02T09:56:31.207Z,21.35
2022-11-02T09:59:01.839Z,21.34
2022-11-02T10:01:34.014Z,21.32
2022-11-02T10:04:11.024Z,21.32
2022-11-02T10:06:41.655Z,21.32
2022-11-02T10:09:20.947Z,21.31
2022-11-02T10:11:51.400Z,21.30
2022-11-02T10:14:22.462Z,21.28
2022-11-02T10:16:54.165Z,21.27
2022-11-02T10:19:26.210Z,21.27
2022-11-02T10:21:57.984Z,21.28
2022-11-02T10:24:26.856Z,21.26
2022-11-02T10:26:59.704Z,21.25
2022-11-02T10:29:35.896Z,21.25
2022-11-02T10:32:03.895Z,21.22
2022-11-02T10:34:31.661Z,21.22
2022-11-02T10:36:58.761Z,21.21
2022-11-02T10:39:34.375Z,21.20
2022-11-02T10:42:11.930Z,21.20
2022-11-02T10:44:42.375Z,21.17
2022-11-02T10:47:16.500Z,21.20
2022-11-02T10:49:51.966Z,21.18
2022-11-02T10:52:19.345Z,21.16
2022-11-02T10:54:50.215Z,21.16
2022-11-02T10:57:21.014Z,21.15
2022-11-02T11:00:07.979Z,21.12
2022-11-02T11:02:35.116Z,21.11
2022-11-02T11:05:12.935Z,21.09
2022-11-02T11:07:45.105Z,21.10
2022-11-02T11:10:16.226Z,21.07
2022-11-02T11:12:43.651Z,21.07
2022-11-02T11:21:00.930Z,21.05
2022-11-02T11:23:28.376Z,21.03
2022-11-02T11:25:57.415Z,21.03
2022-11-02T11:28:29.073Z,21.01
2022-11-02T11:31:03.587Z,21.00
2022-11-02T11:33:31.574Z,20.97
2022-11-02T11:35:59.205Z,20.98
2022-11-02T11:38:27.994Z,20.94
2022-11-02T11:40:57.486Z,20.93
2022-11-02T11:43:27.127Z,20.92
2022-11-02T11:46:00.473Z,20.91
2022-11-02T11:48:31.351Z,20.90
2022-11-02T11:50:58.854Z,20.87
2022-11-02T11:53:27.085Z,20.86
2022-11-02T11:55:55.655Z,20.84
2022-11-02T11:58:24.065Z,20.82
2022-11-02T12:01:10.516Z,20.82
2022-11-02T12:03:47.048Z,20.81
2022-11-02T12:06:21.038Z,20.79
2022-11-02T12:09:04.540Z,20.77
2022-11-02T12:11:40.081Z,20.75
2022-11-02T12:14:14.243Z,20.74
2022-11-02T12:16:41.610Z,20.73
2022-11-02T12:19:18.323Z,20.73
2022-11-02T12:21:54.079Z,20.68
2022-11-02T12:24:21.244Z,20.69
2022-11-02T12:27:05.277Z,20.65
2022-11-02T12:29:41.924Z,20.62
2022-11-02T12:32:14.649Z,20.62
2022-11-02T12:34:57.773Z,20.59
2022-11-02T12:37:48.888Z,20.57
2022-11-02T12:43:23.451Z,20.56
2022-11-02T12:45:55.952Z,20.54
2022-11-02T12:48:26.820Z,20.51
2022-11-02T12:51:03.483Z,20.50
2022-11-02T12:53:40.145Z,20.47
2022-11-02T12:56:10.083Z,20.47
2022-11-02T12:58:39.609Z,20.44
2022-11-02T13:01:12.346Z,20.42
2022-11-02T13:03:47.959Z,20.40
2022-11-02T13:06:18.078Z,20.37
2022-11-02T13:08:48.493Z,20.35
2022-11-02T13:11:20.556Z,20.34
2022-11-02T13:13:51.814Z,20.33
2022-11-02T13:16:22.537Z,20.32
2022-11-02T13:18:51.518Z,20.33
2022-11-02T13:21:24.175Z,20.29
2022-11-02T13:23:54.316Z,20.29
2022-11-02T13:26:22.650Z,20.25
2022-11-02T13:28:53.686Z,20.27
2022-11-02T13:31:28.648Z,20.26
2022-11-02T13:33:57.446Z,20.25
2022-11-02T13:36:27.691Z,20.23
2022-11-02T13:39:00.932Z,20.19
2022-11-02T13:41:33.043Z,20.19
2022-11-02T13:44:02.045Z,20.19
2022-11-02T13:46:38.446Z,20.14
2022-11-02T13:49:12.856Z,20.12
2022-11-02T13:51:44.582Z,20.12
2022-11-02T13:54:17.522Z,20.14
2022-11-02T13:56:45.523Z,20.11
2022-11-02T13:59:22.372Z,20.12
2022-11-02T14:01:52.975Z,20.10
2022-11-02T14:04:21.367Z,20.10
2022-11-02T14:06:48.975Z,20.11
2022-11-02T14:09:26.243Z,20.09
2022-11-02T14:12:10.721Z,20.05
2022-11-02T14:14:37.998Z,20.05
2022-11-02T14:17:15.098Z,20.05
2022-11-02T14:19:49.789Z,20.03
2022-11-02T14:22:18.016Z,20.02
2022-11-02T14:24:46.472Z,20.01
2022-11-02T14:27:14.096Z,19.98
2022-11-02T14:29:41.405Z,19.97
2022-11-02T14:32:17.926Z,19.96
2022-11-02T14:34:55.123Z,19.95
2022-11-02T14:37:23.534Z,19.95
2022-11-02T14:39:59.944Z,19.94
2022-11-02T14:42:37.689Z,19.91
2022-11-02T14:45:11.143Z,19.89
2022-11-02T14:47:39.279Z,19.89
2022-11-02T14:50:07.682Z,19.88
2022-11-02T14:52:36.677Z,19.88
2022-11-02T14:55:07.203Z,19.87
2022-11-02T14:57:44.336Z,19.87
2022-11-02T15:00:21.848Z,19.86
2022-11-02T15:02:50.169Z,19.86
2022-11-02T15:05:26.060Z,19.84
2022-11-02T15:07:58.907Z,19.82
2022-11-02T15:10:31.241Z,19.80
2022-11-02T15:13:15.861Z,19.80
2022-11-02T15:15:44.824Z,19.79
2022-11-02T15:18:22.148Z,19.77
2022-11-02T15:21:10.722Z,19.74
2022-11-02T15:26:43.039Z,19.75
2022-11-02T15:29:17.149Z,19.73
2022-11-02T15:31:49.230Z,19.69
2022-11-02T15:34:19.539Z,19.72
2022-11-02T15:36:47.209Z,19.74
2022-11-02T15:39:15.712Z,19.75
2022-11-02T15:41:43.584Z,19.79
2022-11-02T15:44:20.727Z,19.83
2022-11-02T15:46:56.094Z,19.88
2022-11-02T15:49:35.220Z,19.92
2022-11-02T15:52:03.449Z,19.94
2022-11-02T15:54:34.251Z,19.95
2022-11-02T15:57:12.583Z,19.99
2022-11-02T15:59:49.503Z,20.10
2022-11-02T16:02:21.332Z,20.23
2022-11-02T16:04:51.839Z,20.28
2022-11-02T16:07:21.873Z,20.32
2022-11-02T16:09:51.241Z,20.36
2022-11-02T16:12:21.307Z,20.41
2022-11-02T16:14:53.693Z,20.46
2022-11-02T16:17:24.882Z,20.49
2022-11-02T16:19:54.105Z,20.52
2022-11-02T16:22:23.787Z,20.56
2022-11-02T16:24:52.504Z,20.60
2022-11-02T16:27:20.590Z,20.66
2022-11-02T16:29:50.135Z,20.68
2022-11-02T16:32:18.095Z,20.74
2022-11-02T16:34:46.214Z,20.77
2022-11-02T16:37:16.403Z,20.79
2022-11-02T16:39:46.295Z,20.78
2022-11-02T16:42:17.639Z,20.80
2022-11-02T16:44:54.870Z,20.82
2022-11-02T16:47:30.573Z,20.85
2022-11-02T16:49:59.439Z,20.88
2022-11-02T16:52:30.407Z,20.89
2022-11-02T16:54:58.343Z,20.94
2022-11-02T16:57:29.150Z,21.02
2022-11-02T17:00:08.664Z,21.01
2022-11-02T17:02:40.570Z,21.00
2022-11-02T17:05:19.701Z,21.00
2022-11-02T17:07:58.441Z,21.01
2022-11-02T17:10:28.691Z,21.02
2022-11-02T17:12:57.158Z,21.01
2022-11-02T17:15:27.211Z,21.01
2022-11-02T17:18:15.161Z,21.02
2022-11-02T17:20:43.666Z,21.01
2022-11-02T17:23:29.637Z,21.03
2022-11-02T17:26:08.012Z,21.03
2022-11-02T17:28:47.205Z,21.04
2022-11-02T17:31:26.959Z,21.03
2022-11-02T17:33:57.836Z,21.05
2022-11-02T17:36:28.150Z,21.04
2022-11-02T17:38:56.425Z,21.02
2022-11-02T17:41:34.257Z,21.02
2022-11-02T17:44:02.972Z,21.02
2022-11-02T17:46:31.506Z,21.04
2022-11-02T17:49:00.167Z,21.01
2022-11-02T17:51:28.515Z,21.00
2022-11-02T17:53:56.690Z,20.98
2022-11-02T17:56:25.225Z,20.97
2022-11-02T17:58:57.657Z,20.96
2022-11-02T18:01:30.945Z,20.96
2022-11-02T18:03:59.182Z,20.95
2022-11-02T18:06:27.228Z,20.94
2022-11-02T18:09:04.358Z,20.94
2022-11-02T18:11:32.772Z,20.93
2022-11-02T18:14:01.251Z,20.93
2022-11-02T18:16:30.439Z,20.94
2022-11-02T18:18:59.344Z,20.93
2022-11-02T18:21:26.893Z,20.92
2022-11-02T18:23:54.863Z,20.92
2022-11-02T18:26:23.226Z,20.91
2022-11-02T18:28:53.890Z,20.91
2022-11-02T18:31:21.778Z,20.91
2022-11-02T18:33:49.412Z,20.90
2022-11-02T18:36:17.021Z,20.88
2022-11-02T18:38:45.004Z,20.88
2022-11-02T18:41:22.330Z,20.87
2022-11-02T18:43:50.520Z,20.86
2022-11-02T18:46:18.912Z,20.85
2022-11-02T18:48:48.544Z,20.83
2022-11-02T18:51:16.661Z,20.82
2022-11-02T18:53:44.485Z,20.80
2022-11-02T18:56:13.353Z,20.78
2022-11-02T18:58:42.386Z,20.79
2022-11-02T19:01:11.966Z,20.77
2022-11-02T19:03:40.441Z,20.75
2022-11-02T19:06:18.349Z,20.74
2022-11-02T19:08:55.095Z,20.73
2022-11-02T19:11:22.540Z,20.71
2022-11-02T19:13:50.241Z,20.70
2022-11-02T19:16:18.139Z,20.67
2022-11-02T19:18:46.263Z,20.66
2022-11-02T19:21:14.086Z,20.65
2022-11-02T19:23:41.610Z,20.62
2022-11-02T19:26:10.098Z,20.60
2022-11-02T19:28:38.010Z,20.57
2022-11-02T19:31:06.633Z,20.53
2022-11-02T19:33:34.132Z,20.53
2022-11-02T19:36:01.812Z,20.52
2022-11-02T19:38:29.112Z,20.49
2022-11-02T19:41:06.548Z,20.49
2022-11-02T19:43:34.528Z,20.48
2022-11-02T19:46:02.697Z,20.46
2022-11-02T19:48:32.819Z,20.44
2022-11-02T19:51:11.488Z,20.44
2022-11-02T19:53:41.232Z,20.40
2022-11-02T19:56:11.546Z,20.40
2022-11-02T19:58:40.660Z,20.40
2022-11-02T20:01:09.850Z,20.39
2022-11-02T20:03:37.911Z,20.35
2022-11-02T20:06:06.730Z,20.39
2022-11-02T20:08:34.580Z,20.41
2022-11-02T20:11:02.300Z,20.38
2022-11-02T20:13:30.056Z,20.34
2022-11-02T20:15:57.575Z,20.35
2022-11-02T20:18:25.116Z,20.34
2022-11-02T20:20:53.954Z,20.33
2022-11-02T20:23:21.311Z,20.30
2022-11-02T20:25:48.743Z,20.31
2022-11-02T20:28:16.382Z,20.30
2022-11-02T20:30:44.237Z,20.27
2022-11-02T20:33:11.686Z,20.25
2022-11-02T20:35:39.535Z,20.26
2022-11-02T20:38:07.036Z,20.26
2022-11-02T20:40:37.547Z,20.24
2022-11-02T20:43:08.587Z,20.23
2022-11-02T20:45:35.858Z,20.22
2022-11-02T20:48:04.101Z,20.21
2022-11-02T20:50:31.906Z,20.21
2022-11-02T20:52:59.968Z,20.19
2022-11-02T20:55:27.572Z,20.19
2022-11-02T20:57:54.763Z,20.18
2022-11-02T21:00:22.198Z,20.17
2022-11-02T21:02:49.640Z,20.16
2022-11-02T21:05:17.059Z,20.14
2022-11-02T21:07:44.548Z,20.13
2022-11-02T21:10:12.074Z,20.11
2022-11-02T21:12:48.942Z,20.12
2022-11-02T21:15:16.123Z,20.12
2022-11-02T21:17:43.514Z,20.14
2022-11-02T21:20:33.131Z,20.16
2022-11-02T21:23:00.765Z,20.22
2022-11-02T21:25:28.643Z,20.19
2022-11-02T21:27:56.531Z,20.23
2022-11-02T21:30:23.917Z,20.27
2022-11-02T21:32:52.324Z,20.31
2022-11-02T21:35:19.901Z,20.34
2022-11-02T21:37:46.990Z,20.39
2022-11-02T21:40:14.688Z,20.44
2022-11-02T21:42:42.022Z,20.50
2022-11-02T21:45:09.673Z,20.54
2022-11-02T21:47:36.965Z,20.58
2022-11-02T21:50:06.699Z,20.64
2022-11-02T21:52:35.871Z,20.68
2022-11-02T21:55:03.641Z,20.72
2022-11-02T21:57:30.650Z,20.74
2022-11-02T21:59:57.923Z,20.78
2022-11-02T22:02:25.055Z,20.81
2022-11-02T22:04:54.588Z,20.84
2022-11-02T22:07:22.080Z,20.85
2022-11-02T22:09:50.949Z,20.89
2022-11-02T22:12:27.766Z,20.91
2022-11-02T22:14:55.472Z,20.92
2022-11-02T22:17:48.080Z,20.96
2022-11-02T22:20:10.044Z,20.98
2022-11-02T22:22:37.202Z,20.99
2022-11-02T22:25:04.634Z,21.01
2022-11-02T22:27:31.866Z,21.02
2022-11-02T22:29:59.118Z,21.02
2022-11-02T22:32:26.660Z,21.04
2022-11-02T22:34:54.178Z,21.04
2022-11-02T22:37:24.376Z,21.05
2022-11-02T22:39:51.563Z,21.07
2022-11-02T22:42:18.936Z,21.06
2022-11-02T22:44:46.214Z,21.08
2022-11-02T22:47:13.237Z,21.10
2022-11-02T22:49:40.399Z,21.10
2022-11-02T22:52:07.529Z,21.11
2022-11-02T22:54:34.507Z,21.12
2022-11-02T22:57:01.364Z,21.13
2022-11-02T22:59:28.544Z,21.14
2022-11-02T23:01:55.805Z,21.14
2022-11-02T23:04:22.803Z,21.14
2022-11-02T23:06:49.961Z,21.14
2022-11-02T23:09:17.065Z,21.15
2022-11-02T23:11:44.380Z,21.17
2022-11-02T23:14:12.901Z,21.18
2022-11-02T23:16:42.525Z,21.17
2022-11-02T23:19:16.919Z,21.18
2022-11-02T23:21:49.522Z,21.20
2022-11-02T23:24:20.959Z,21.24
2022-11-02T23:26:49.573Z,21.29
2022-11-02T23:29:19.804Z,21.32
2022-11-02T23:31:49.866Z,21.36
2022-11-02T23:34:16.812Z,21.40
2022-11-02T23:36:43.670Z,21.44
2022-11-02T23:39:13.610Z,21.46
2022-11-02T23:41:41.820Z,21.51
2022-11-02T23:44:12.456Z,21.54
2022-11-02T23:46:39.916Z,21.56
2022-11-02T23:49:07.021Z,21.58
2022-11-02T23:51:37.111Z,21.61
2022-11-02T23:54:07.206Z,21.63
2022-11-02T23:56:37.746Z,21.66
2022-11-02T23:59:07.797Z,21.67
